Time;durP1;ratioP1;P1;durP2;ratioP2;P2;SDS_P1;SDS_P2;PMS_P1;PMS_P2;Temp;Humidity;BMP_temperature;BMP_pressure;BME280_temperature;BME280_humidity;BME280_pressure;Samples;Min_cycle;Max_cycle;Signal;HPM_P1;HPM_P2
2022/05/27 11:07:14;;;;;;;15.65;3.20;;;16.20;99.90;;;;;;5067155;28;20055;-55
2022/05/27 11:10:10;;;;;;;16.50;3.65;;;16.30;99.90;;;;;;5072039;28;20041;-54
2022/05/27 11:16:09;;;;;;;12.63;2.03;;;16.70;99.90;;;;;;5064449;28;20045;-54
2022/05/27 11:18:42;;;;;;;14.10;3.60;;;16.60;99.90;;;;;;5051554;28;20049;-54
2022/05/27 11:21:58;;;;;;;19.65;2.90;;;16.80;99.90;;;;;;5000589;28;20049;-54
2022/05/27 11:24:47;;;;;;;12.43;2.80;;;16.70;99.90;;;;;;4970964;28;20158;-53
2022/05/27 11:27:29;;;;;;;14.73;2.55;;;16.60;99.90;;;;;;4970854;28;20046;-54
2022/05/27 11:30:32;;;;;;;15.30;2.80;;;16.50;99.90;;;;;;5001195;28;20093;-54
2022/05/27 11:33:13;;;;;;;12.63;2.88;;;16.30;99.90;;;;;;5009859;28;20059;-54
2022/05/27 11:35:39;;;;;;;15.65;3.80;;;16.20;99.90;;;;;;5009858;28;20127;-54
2022/05/27 11:38:42;;;;;;;13.32;3.17;;;16.10;99.90;;;;;;5009906;28;20257;-54
2022/05/27 11:41:24;;;;;;;12.13;2.80;;;16.00;99.90;;;;;;5009763;28;20128;-54
2022/05/27 11:44:05;;;;;;;14.98;4.05;;;16.10;99.90;;;;;;4994993;28;20050;-54
2022/05/27 11:47:05;;;;;;;14.73;2.95;;;15.90;99.90;;;;;;4993364;28;20544;-54
2022/05/27 11:50:06;;;;;;;18.13;3.50;;;16.00;99.90;;;;;;4970591;28;20083;-54
2022/05/27 11:53:04;;;;;;;12.63;2.57;;;15.90;99.90;;;;;;4913079;29;20485;-54
2022/05/27 11:55:47;;;;;;;18.33;3.25;;;16.30;99.90;;;;;;4912823;29;20340;-54
2022/05/27 11:58:31;;;;;;;18.08;3.53;;;16.30;99.90;;;;;;4913323;29;20080;-54
2022/05/27 12:01:06;;;;;;;11.18;2.72;;;16.20;99.90;;;;;;4930140;29;20054;-54
2022/05/27 12:03:45;;;;;;;11.75;3.42;;;16.10;99.90;;;;;;4932138;29;20074;-54
2022/05/27 12:06:16;;;;;;;13.13;2.80;;;16.00;99.90;;;;;;4931989;29;20376;-54
2022/05/27 12:08:55;;;;;;;19.88;3.15;;;16.40;99.90;;;;;;4932273;29;20098;-54
2022/05/27 12:11:27;;;;;;;;;;;16.60;99.90;;;;;;4932678;29;20063;-54
2022/05/27 12:14:04;;;;;;;12.45;2.80;;;16.50;99.90;;;;;;4931998;29;19929;-54
2022/05/27 12:16:37;;;;;;;16.02;2.92;;;16.00;99.90;;;;;;4932245;29;20056;-54
2022/05/27 12:19:11;;;;;;;15.88;3.20;;;15.90;99.90;;;;;;4932093;29;20110;-54
2022/05/27 12:21:47;;;;;;;10.10;2.50;;;16.00;99.90;;;;;;4932184;29;20131;-54
2022/05/27 12:24:45;;;;;;;15.07;3.85;;;15.80;99.90;;;;;;4932047;29;20515;-54
2022/05/27 12:27:15;;;;;;;12.32;3.35;;;15.60;99.90;;;;;;4985210;28;20634;-54
2022/05/27 12:29:42;;;;;;;17.63;2.95;;;15.60;99.90;;;;;;5059329;28;20087;-54
2022/05/27 12:32:10;;;;;;;14.10;3.63;;;15.70;99.90;;;;;;5075099;28;20389;-54
2022/05/27 12:34:39;;;;;;;14.52;2.88;;;15.50;99.90;;;;;;5057329;28;20086;-54
2022/05/27 12:37:25;;;;;;;16.80;3.10;;;15.30;99.90;;;;;;5074714;28;20080;-54
2022/05/27 12:40:10;;;;;;;15.45;3.13;;;15.20;99.90;;;;;;5074832;28;20578;-54
2022/05/27 12:42:39;;;;;;;17.10;4.07;;;15.10;99.90;;;;;;5074609;28;20124;-54
2022/05/27 12:45:40;;;;;;;19.15;4.00;;;15.50;99.90;;;;;;5057140;28;20388;-54
2022/05/27 12:48:07;;;;;;;16.05;2.58;;;15.50;99.90;;;;;;4993093;28;20054;-53
2022/05/27 12:50:37;;;;;;;14.32;3.35;;;15.20;99.90;;;;;;4976823;28;20047;-53
2022/05/27 12:53:21;;;;;;;17.88;3.15;;;15.20;99.90;;;;;;4976814;28;20046;-54
2022/05/27 13:02:21;;;;;;;15.63;3.28;;;15.10;99.90;;;;;;4992930;28;20074;-54
2022/05/27 13:04:50;;;;;;;16.38;3.22;;;15.50;99.90;;;;;;4992505;28;20046;-53
2022/05/27 13:07:35;;;;;;;11.98;3.10;;;16.20;99.90;;;;;;4992779;28;20054;-54
2022/05/27 13:10:16;;;;;;;10.15;2.47;;;16.00;99.90;;;;;;4992737;28;20132;-54
2022/05/27 13:12:47;;;;;;;13.25;2.38;;;15.80;99.90;;;;;;4992714;28;20051;-53
2022/05/27 13:15:31;;;;;;;13.13;3.15;;;16.20;99.90;;;;;;4992670;28;20061;-54
2022/05/27 13:18:34;;;;;;;15.40;3.22;;;16.10;99.90;;;;;;4975971;28;20054;-54
2022/05/27 13:21:18;;;;;;;14.75;3.53;;;16.00;99.90;;;;;;4992520;28;20184;-54
2022/05/27 13:24:01;;;;;;;10.02;3.13;;;15.80;99.90;;;;;;4992454;28;20116;-54
2022/05/27 13:26:29;;;;;;;18.10;3.25;;;16.30;99.90;;;;;;5074105;28;20068;-54
2022/05/27 13:28:58;;;;;;;9.05;2.38;;;16.40;99.90;;;;;;5056025;28;20387;-54
2022/05/27 13:31:31;;;;;;;11.80;2.95;;;16.20;99.90;;;;;;5073689;28;20040;-54
2022/05/27 13:34:05;;;;;;;14.55;2.63;;;15.80;99.90;;;;;;5074044;28;20094;-54
2022/05/27 13:36:48;;;;;;;15.18;2.95;;;15.70;99.90;;;;;;5073569;28;20530;-54
2022/05/27 13:39:15;;;;;;;16.20;3.05;;;15.70;99.90;;;;;;5073755;28;20143;-54
2022/05/27 13:41:46;;;;;;;14.93;2.60;;;16.30;99.90;;;;;;5073580;28;20098;-54
2022/05/27 13:44:13;;;;;;;16.40;3.28;;;16.20;99.90;;;;;;5073570;28;20421;-53
2022/05/27 13:46:45;;;;;;;18.73;3.40;;;15.90;99.90;;;;;;5073358;28;20056;-53
2022/05/27 13:49:32;;;;;;;11.40;3.47;;;16.20;99.90;;;;;;5073400;28;20044;-53
2022/05/27 13:52:00;;;;;;;13.57;2.70;;;16.40;99.90;;;;;;5073494;28;20558;-54
2022/05/27 13:54:35;;;;;;;9.65;2.35;;;16.10;99.90;;;;;;5055096;28;20061;-54
2022/05/27 13:57:05;;;;;;;13.55;3.03;;;16.10;99.90;;;;;;5073336;28;20227;-54
2022/05/27 13:59:48;;;;;;;15.30;3.15;;;16.10;99.90;;;;;;5073193;28;20055;-54
2022/05/27 14:02:22;;;;;;;12.70;2.63;;;15.80;99.90;;;;;;5073421;28;20040;-54
2022/05/27 14:04:57;;;;;;;14.43;2.70;;;15.80;99.90;;;;;;5073437;28;20110;-54
2022/05/27 14:07:30;;;;;;;12.77;2.97;;;15.80;99.90;;;;;;5073300;28;20052;-53
2022/05/27 14:09:59;;;;;;;13.25;3.30;;;15.90;99.90;;;;;;5072927;28;20044;-54
2022/05/27 14:12:32;;;;;;;19.40;3.55;;;15.80;99.90;;;;;;5072976;28;20048;-54
2022/05/27 14:15:11;;;;;;;16.13;2.70;;;15.80;99.90;;;;;;5073067;28;20044;-54
2022/05/27 14:17:39;;;;;;;;;;;15.80;99.90;;;;;;5073256;28;20052;-54
2022/05/27 14:20:09;;;;;;;14.45;3.38;;;15.60;99.90;;;;;;5072811;28;20294;-53
2022/05/27 14:22:45;;;;;;;18.45;4.00;;;15.50;99.90;;;;;;5072598;28;20475;-53
2022/05/27 14:25:11;;;;;;;12.35;2.95;;;15.80;99.90;;;;;;5073104;28;20601;-54
2022/05/27 14:27:56;;;;;;;13.73;3.00;;;16.20;99.90;;;;;;5072915;28;20088;-54
2022/05/27 14:30:37;;;;;;;9.25;3.33;;;16.20;99.90;;;;;;5072501;28;20052;-54
2022/05/27 14:33:19;;;;;;;8.60;2.22;;;16.40;99.90;;;;;;5072388;28;20032;-54
2022/05/27 14:35:45;;;;;;;20.30;3.22;;;16.60;99.90;;;;;;5072382;28;20123;-54
2022/05/27 14:38:16;;;;;;;13.15;2.80;;;16.40;99.90;;;;;;5072389;28;20125;-54
2022/05/27 14:40:47;;;;;;;19.58;2.50;;;16.40;99.90;;;;;;5072219;28;20068;-53
2022/05/27 14:43:49;;;;;;;14.38;2.67;;;16.00;99.90;;;;;;5071952;28;20494;-54
2022/05/27 14:46:25;;;;;;;13.82;2.78;;;16.00;99.90;;;;;;5072311;28;20494;-54
2022/05/27 14:49:22;;;;;;;15.57;2.97;;;16.00;99.90;;;;;;5072246;28;20044;-54
2022/05/27 14:51:48;;;;;;;12.27;2.58;;;15.60;99.90;;;;;;5071649;28;20402;-54
2022/05/27 14:54:35;;;;;;;14.93;3.65;;;15.60;99.90;;;;;;5072260;28;20370;-54
2022/05/27 14:57:13;;;;;;;12.07;2.67;;;15.60;99.90;;;;;;5072646;28;20084;-54
2022/05/27 14:59:49;;;;;;;16.67;3.33;;;15.50;99.90;;;;;;5072121;28;20461;-54
2022/05/27 15:02:27;;;;;;;18.42;3.13;;;15.50;99.90;;;;;;5070891;28;20044;-54
2022/05/27 15:05:12;;;;;;;15.02;2.90;;;15.40;99.90;;;;;;5072175;28;20037;-53
2022/05/27 15:07:43;;;;;;;16.05;2.65;;;15.50;99.90;;;;;;5071992;28;20063;-54
2022/05/27 15:10:40;;;;;;;13.05;2.03;;;15.40;99.90;;;;;;5071957;28;20513;-55
2022/05/27 15:13:30;;;;;;;21.05;3.67;;;15.70;99.90;;;;;;5071825;28;20103;-52
2022/05/27 15:16:22;;;;;;;19.17;4.28;;;15.70;99.90;;;;;;5072154;28;20485;-54
2022/05/27 15:19:14;;;;;;;14.23;2.30;;;15.60;99.90;;;;;;5071807;28;20049;-54
2022/05/27 15:21:43;;;;;;;8.63;2.40;;;15.40;99.90;;;;;;5071761;28;20118;-54
2022/05/27 15:24:29;;;;;;;;;;;15.40;99.90;;;;;;5072305;28;20036;-54
2022/05/27 15:33:09;;;;;;;11.77;3.05;;;15.60;99.90;;;;;;5071777;28;20388;-54
2022/05/27 15:35:44;;;;;;;10.70;2.58;;;15.30;99.90;;;;;;5070326;28;20090;-54
2022/05/27 15:38:13;;;;;;;15.73;3.20;;;15.20;99.90;;;;;;5069938;28;20055;-53
2022/05/27 15:40:40;;;;;;;11.07;2.70;;;15.30;99.90;;;;;;5068786;28;20039;-53
2022/05/27 15:43:33;;;;;;;11.70;2.60;;;15.10;99.90;;;;;;5050183;28;20467;-54
2022/05/27 15:46:00;;;;;;;12.63;2.60;;;15.30;99.90;;;;;;5046072;28;20049;-54
2022/05/27 15:48:27;;;;;;;16.45;3.08;;;15.40;99.90;;;;;;5050599;28;20543;-54
2022/05/27 15:50:53;;;;;;;12.38;2.88;;;15.50;99.90;;;;;;5050435;28;20052;-52
2022/05/27 15:53:22;;;;;;;13.40;3.63;;;15.30;99.90;;;;;;5051172;28;20083;-54
2022/05/27 15:55:48;;;;;;;13.65;2.70;;;15.20;99.90;;;;;;5051692;28;20431;-54
2022/05/27 15:58:14;;;;;;;20.23;4.30;;;15.60;99.90;;;;;;5051309;28;20103;-53
2022/05/27 16:00:41;;;;;;;14.35;2.95;;;15.50;99.90;;;;;;5051878;28;20080;-54
2022/05/27 16:03:08;;;;;;;18.75;2.85;;;15.20;99.90;;;;;;5051764;28;20041;-54
2022/05/27 16:05:34;;;;;;;15.10;2.70;;;15.10;99.90;;;;;;5053036;28;20483;-54
2022/05/27 16:07:59;;;;;;;8.77;2.20;;;15.00;99.90;;;;;;5049957;28;20057;-53
2022/05/27 16:10:33;;;;;;;14.60;3.08;;;14.90;99.90;;;;;;5048159;28;21086;-55
2022/05/27 16:12:59;;;;;;;12.82;3.00;;;15.10;99.90;;;;;;5048723;28;20045;-56
2022/05/27 16:15:25;;;;;;;12.10;2.50;;;15.10;99.90;;;;;;5052757;28;20101;-56
2022/05/27 16:17:51;;;;;;;12.52;2.50;;;15.20;99.90;;;;;;5055157;28;20045;-56
2022/05/27 16:20:27;;;;;;;11.38;2.13;;;15.10;99.90;;;;;;5044757;28;20086;-56
2022/05/27 16:22:54;;;;;;;14.82;1.90;;;15.10;99.90;;;;;;5055099;28;20049;-56
2022/05/27 16:25:21;;;;;;;24.00;3.15;;;15.10;99.90;;;;;;5054855;28;20116;-56
2022/05/27 16:27:47;;;;;;;9.55;2.50;;;15.10;99.90;;;;;;5054887;28;20488;-56
2022/05/27 16:30:16;;;;;;;19.55;3.53;;;15.00;99.90;;;;;;5052873;28;20098;-57
2022/05/27 16:32:42;;;;;;;15.48;3.50;;;14.90;99.90;;;;;;5054854;28;20055;-56
2022/05/27 16:35:09;;;;;;;14.63;2.50;;;14.80;99.90;;;;;;5049133;28;20499;-56
2022/05/27 16:37:35;;;;;;;20.73;3.35;;;14.80;99.90;;;;;;5049284;28;20060;-56
2022/05/27 16:40:02;;;;;;;12.15;2.78;;;14.80;99.90;;;;;;5053456;28;20482;-55
2022/05/27 16:42:27;;;;;;;10.68;2.22;;;14.70;99.90;;;;;;5054572;28;20546;-56
2022/05/27 16:44:53;;;;;;;12.18;2.00;;;14.70;99.90;;;;;;5054249;28;20141;-55
2022/05/27 16:47:19;;;;;;;11.90;2.53;;;14.70;99.90;;;;;;5054704;28;20056;-56
2022/05/27 16:49:45;;;;;;;13.77;2.47;;;14.80;99.90;;;;;;5054706;28;20091;-55
2022/05/27 16:52:13;;;;;;;14.30;3.30;;;14.70;99.90;;;;;;5054983;28;20666;-55
2022/05/27 16:54:38;;;;;;;12.23;2.25;;;14.60;99.90;;;;;;5053166;28;20166;-56
2022/05/27 16:57:05;;;;;;;15.07;3.00;;;14.70;99.90;;;;;;5035152;28;20165;-55
2022/05/27 16:59:31;;;;;;;12.40;2.35;;;14.60;99.90;;;;;;5055106;28;20091;-55
2022/05/27 17:01:57;;;;;;;12.63;2.78;;;14.70;99.90;;;;;;5054436;28;20404;-55
2022/05/27 17:04:23;;;;;;;17.73;2.70;;;14.60;99.90;;;;;;5053093;28;20096;-55
2022/05/27 17:06:49;;;;;;;12.90;2.88;;;14.60;99.90;;;;;;5068919;28;20053;-56
2022/05/27 17:09:14;;;;;;;11.20;2.85;;;14.60;99.90;;;;;;5073931;28;20098;-56
2022/05/27 17:11:41;;;;;;;18.23;2.67;;;14.70;99.90;;;;;;5074526;28;20125;-55
2022/05/27 17:14:07;;;;;;;11.93;2.70;;;14.90;99.90;;;;;;5074220;28;20426;-55
2022/05/27 17:16:33;;;;;;;17.40;3.00;;;15.00;99.90;;;;;;5073476;28;20040;-55
2022/05/27 17:18:58;;;;;;;13.88;2.42;;;14.90;99.90;;;;;;5073819;28;20102;-55
2022/05/27 17:21:24;;;;;;;13.27;2.80;;;14.90;99.90;;;;;;5074043;28;20072;-55
2022/05/27 17:23:50;;;;;;;16.63;3.65;;;14.70;99.90;;;;;;5073958;28;20048;-55
2022/05/27 17:26:15;;;;;;;14.70;2.00;;;14.70;99.90;;;;;;5056129;28;20052;-55
2022/05/27 17:28:41;;;;;;;14.82;3.35;;;14.60;99.90;;;;;;5074028;28;20543;-55
2022/05/27 17:31:07;;;;;;;12.02;1.70;;;14.60;99.90;;;;;;5073680;28;20411;-56
2022/05/27 17:33:33;;;;;;;11.32;2.28;;;14.60;99.90;;;;;;5073649;28;20406;-55
2022/05/27 17:35:58;;;;;;;15.30;2.92;;;14.50;99.90;;;;;;5073616;28;20044;-55
2022/05/27 17:38:24;;;;;;;14.35;2.50;;;14.50;99.90;;;;;;5073505;28;20102;-55
2022/05/27 17:40:50;;;;;;;15.43;3.60;;;14.40;99.90;;;;;;5073944;28;20181;-56
2022/05/27 17:43:16;;;;;;;16.15;3.35;;;14.40;99.90;;;;;;5073781;28;20128;-55
2022/05/27 17:45:42;;;;;;;10.65;2.83;;;14.40;99.90;;;;;;5073569;28;20152;-55
2022/05/27 17:53:36;;;;;;;14.93;2.30;;;14.40;99.90;;;;;;5073495;28;20044;-55
2022/05/27 17:56:03;;;;;;;12.60;2.53;;;14.50;99.90;;;;;;5073265;28;20056;-56
2022/05/27 17:58:30;;;;;;;12.20;2.50;;;14.40;99.90;;;;;;5072083;28;20076;-55
2022/05/27 18:00:59;;;;;;;14.25;2.42;;;14.30;99.90;;;;;;5072919;28;20099;-55
2022/05/27 18:03:25;;;;;;;9.43;2.47;;;14.40;99.90;;;;;;5073216;28;20044;-56
2022/05/27 18:05:51;;;;;;;13.10;3.03;;;14.50;99.90;;;;;;5072825;28;20071;-56
2022/05/27 18:08:17;;;;;;;14.70;2.38;;;14.50;99.90;;;;;;5073172;28;20394;-55
2022/05/27 18:10:43;;;;;;;13.82;3.50;;;14.50;99.90;;;;;;5073151;28;20152;-56
2022/05/27 18:13:09;;;;;;;12.00;2.05;;;14.50;99.90;;;;;;5073275;28;20048;-55
2022/05/27 18:15:35;;;;;;;14.48;2.60;;;14.50;99.90;;;;;;5073031;28;20041;-55
2022/05/27 18:18:01;;;;;;;14.10;2.25;;;14.50;99.90;;;;;;5072625;28;20198;-56
2022/05/27 18:20:27;;;;;;;10.43;2.50;;;14.50;99.90;;;;;;5072958;28;20051;-55
2022/05/27 18:22:53;;;;;;;12.60;2.20;;;14.30;99.90;;;;;;5072112;28;20111;-55
2022/05/27 18:25:20;;;;;;;15.10;2.85;;;14.30;99.90;;;;;;5072768;28;20483;-55
2022/05/27 18:27:49;;;;;;;16.50;2.50;;;14.20;99.90;;;;;;5071809;28;20401;-55
2022/05/27 18:30:16;;;;;;;9.10;2.17;;;14.10;99.90;;;;;;5072759;28;20486;-55
2022/05/27 18:32:41;;;;;;;16.10;2.60;;;14.20;99.90;;;;;;5072905;28;20049;-55
2022/05/27 18:35:08;;;;;;;11.70;2.53;;;14.20;99.90;;;;;;5073023;28;20049;-55
2022/05/27 18:37:34;;;;;;;12.73;2.75;;;14.10;99.90;;;;;;5072494;28;20044;-55
2022/05/27 18:39:59;;;;;;;8.55;2.08;;;14.00;99.90;;;;;;5072676;28;20051;-55
2022/05/27 18:42:25;;;;;;;13.52;2.25;;;14.00;99.90;;;;;;5072569;28;20056;-55
2022/05/27 18:44:51;;;;;;;12.57;3.25;;;14.00;99.90;;;;;;5072601;28;20040;-55
2022/05/27 18:47:16;;;;;;;15.15;2.88;;;13.90;99.90;;;;;;5072553;28;20490;-55
2022/05/27 18:49:42;;;;;;;11.20;2.58;;;13.90;99.90;;;;;;5072635;28;20051;-55
2022/05/27 18:52:09;;;;;;;15.40;2.83;;;13.90;99.90;;;;;;5072297;28;20048;-56
2022/05/27 18:54:36;;;;;;;13.15;2.10;;;13.80;99.90;;;;;;5072501;28;20059;-55
2022/05/27 18:57:01;;;;;;;15.13;3.67;;;13.80;99.90;;;;;;5072259;28;20470;-56
2022/05/27 18:59:27;;;;;;;14.73;2.40;;;13.70;99.90;;;;;;5072211;28;20083;-55
2022/05/27 19:01:53;;;;;;;17.55;3.15;;;13.70;99.90;;;;;;5072411;28;20044;-56
2022/05/27 19:04:21;;;;;;;16.67;2.78;;;13.60;99.90;;;;;;5054518;28;20465;-55
2022/05/27 19:06:47;;;;;;;13.60;3.30;;;13.60;99.90;;;;;;5071761;28;20052;-56
2022/05/27 19:09:13;;;;;;;15.00;3.20;;;13.50;99.90;;;;;;5072151;28;20060;-56
2022/05/27 19:11:41;;;;;;;13.00;2.58;;;13.50;99.90;;;;;;5072442;28;20494;-55
2022/05/27 19:14:07;;;;;;;11.77;2.45;;;13.40;99.90;;;;;;5071946;28;20094;-55
2022/05/27 19:16:32;;;;;;;9.40;1.98;;;13.40;99.90;;;;;;5071854;28;20041;-55
2022/05/27 19:21:42;;;;;;;13.52;3.35;;;13.30;99.90;;;;;;5072144;28;20131;-55
2022/05/27 19:24:08;;;;;;;18.30;2.88;;;13.30;99.90;;;;;;5071877;28;20128;-55
2022/05/27 19:26:35;;;;;;;12.75;3.25;;;13.20;99.90;;;;;;5071788;28;20044;-56
2022/05/27 19:29:00;;;;;;;14.48;3.28;;;13.20;99.90;;;;;;5071827;28;20102;-55
2022/05/27 19:31:26;;;;;;;18.75;2.65;;;13.20;99.90;;;;;;5072249;28;20056;-55
2022/05/27 19:33:52;;;;;;;12.88;2.38;;;13.10;99.90;;;;;;5072308;28;20420;-55
2022/05/27 19:36:22;;;;;;;14.45;3.22;;;13.00;99.90;;;;;;5071728;28;20049;-55
2022/05/27 19:38:49;;;;;;;13.80;2.40;;;13.00;99.90;;;;;;5073346;28;20151;-55
2022/05/27 19:41:15;;;;;;;12.25;2.88;;;13.00;99.90;;;;;;5078565;28;20054;-55
2022/05/27 19:43:43;;;;;;;10.30;2.30;;;12.90;99.90;;;;;;5061016;28;20532;-55
2022/05/27 19:46:11;;;;;;;14.70;2.45;;;12.90;99.90;;;;;;5078784;28;20046;-56
2022/05/27 19:48:40;;;;;;;12.20;2.10;;;12.90;99.90;;;;;;5078434;28;20127;-55
2022/05/27 19:51:22;;;;;;;15.38;3.00;;;12.90;99.90;;;;;;5076762;28;20123;-55
2022/05/27 19:53:48;;;;;;;17.13;3.63;;;12.80;99.90;;;;;;5077697;28;20489;-55
2022/05/27 19:56:16;;;;;;;12.07;2.58;;;12.80;99.90;;;;;;5078715;28;20041;-56
2022/05/27 20:01:26;;;;;;;10.90;2.10;;;12.80;99.90;;;;;;5078341;28;20109;-55
2022/05/27 20:06:36;;;;;;;9.95;2.08;;;12.90;99.90;;;;;;5077954;28;20059;-56
2022/05/27 20:09:04;;;;;;;16.23;3.03;;;12.80;99.90;;;;;;5078233;28;20454;-55
2022/05/27 20:11:34;;;;;;;9.68;2.20;;;12.80;99.90;;;;;;5078549;28;20045;-56
2022/05/27 20:14:11;;;;;;;11.88;2.42;;;12.70;99.90;;;;;;5060188;28;20048;-56
2022/05/27 20:16:43;;;;;;;10.23;2.30;;;12.70;99.90;;;;;;5078011;28;20051;-56
2022/05/27 20:19:10;;;;;;;9.18;2.30;;;12.60;99.90;;;;;;5078487;28;20179;-55
2022/05/27 20:21:36;;;;;;;11.35;2.92;;;12.60;99.90;;;;;;5078652;28;20040;-56
2022/05/27 20:24:02;;;;;;;13.50;2.58;;;12.60;99.90;;;;;;5078274;28;20110;-55
2022/05/27 20:26:29;;;;;;;11.10;2.75;;;12.60;99.90;;;;;;5077943;28;20041;-55
2022/05/27 20:28:57;;;;;;;8.85;1.95;;;12.60;99.90;;;;;;5077923;28;20048;-55
2022/05/27 20:31:23;;;;;;;15.70;2.83;;;12.60;99.90;;;;;;5078138;28;20063;-55
2022/05/27 20:33:48;;;;;;;14.77;2.60;;;12.60;99.90;;;;;;5078249;28;20053;-55
2022/05/27 20:38:58;;;;;;;14.13;3.30;;;12.60;99.90;;;;;;5077968;28;20040;-55
2022/05/27 20:41:24;;;;;;;15.57;2.13;;;12.60;99.90;;;;;;5077794;28;20041;-56
2022/05/27 20:43:49;;;;;;;10.82;2.35;;;12.50;99.90;;;;;;5077860;28;20051;-55
2022/05/27 20:46:15;;;;;;;11.98;2.35;;;12.50;99.90;;;;;;5077839;28;20127;-55
2022/05/27 20:48:42;;;;;;;9.88;2.25;;;12.60;99.90;;;;;;5078136;28;20048;-55
2022/05/27 20:51:08;;;;;;;19.52;3.05;;;12.60;99.90;;;;;;5075300;28;20056;-55
2022/05/27 20:53:35;;;;;;;15.93;2.85;;;12.60;99.90;;;;;;5074233;28;20044;-55
2022/05/27 20:56:02;;;;;;;8.05;1.98;;;12.60;99.90;;;;;;5074886;28;20071;-56
2022/05/27 20:58:29;;;;;;;12.57;2.00;;;12.60;99.90;;;;;;5074372;28;20127;-55
2022/05/27 21:00:55;;;;;;;12.50;2.55;;;12.50;99.90;;;;;;5074514;28;20117;-55
2022/05/27 21:03:22;;;;;;;15.13;2.22;;;12.50;99.90;;;;;;5056782;28;20472;-55
2022/05/27 21:05:52;;;;;;;9.85;2.10;;;12.50;99.90;;;;;;5074095;28;20049;-55
2022/05/27 21:11:02;;;;;;;16.17;2.72;;;12.50;99.90;;;;;;5074431;28;20067;-56
2022/05/27 21:13:28;;;;;;;12.57;3.35;;;12.50;99.90;;;;;;5074168;28;20054;-56
2022/05/27 21:15:53;;;;;;;12.13;2.30;;;12.50;99.90;;;;;;5074138;28;20084;-55
2022/05/27 21:18:19;;;;;;;12.43;2.03;;;12.50;99.90;;;;;;5074269;28;20474;-55
2022/05/27 21:20:45;;;;;;;17.15;2.65;;;12.40;99.90;;;;;;5074092;28;20045;-56
2022/05/27 21:23:11;;;;;;;10.50;1.83;;;12.30;99.90;;;;;;5074178;28;20036;-55
2022/05/27 21:25:37;;;;;;;13.48;3.05;;;12.30;99.90;;;;;;5074310;28;20052;-55
2022/05/27 21:28:03;;;;;;;15.48;3.85;;;12.30;99.90;;;;;;5074071;28;20106;-55
2022/05/27 21:30:28;;;;;;;15.32;2.25;;;12.40;99.90;;;;;;5073828;28;20044;-55
2022/05/27 21:32:54;;;;;;;8.93;2.03;;;12.40;99.90;;;;;;5074271;28;20049;-56
2022/05/27 21:35:19;;;;;;;15.68;2.40;;;12.40;99.90;;;;;;5074158;28;20528;-55
2022/05/27 21:37:45;;;;;;;16.38;2.85;;;12.40;99.90;;;;;;5073977;28;20048;-55
2022/05/27 21:40:11;;;;;;;11.13;2.17;;;12.30;99.90;;;;;;5073583;28;20045;-55
2022/05/27 21:42:37;;;;;;;12.55;2.58;;;12.40;99.90;;;;;;5073746;28;20087;-55
2022/05/27 21:45:03;;;;;;;10.30;2.42;;;12.40;99.90;;;;;;5073726;28;20049;-56
2022/05/27 21:47:28;;;;;;;15.45;2.58;;;12.30;99.90;;;;;;5073652;28;20048;-55
2022/05/27 21:49:54;;;;;;;16.38;2.67;;;12.30;99.90;;;;;;5073420;28;20461;-56
2022/05/27 21:52:21;;;;;;;11.02;2.50;;;12.40;99.90;;;;;;5073453;28;20048;-56
2022/05/27 21:54:47;;;;;;;11.10;1.92;;;12.40;99.90;;;;;;5073336;28;20395;-55
2022/05/27 21:57:12;;;;;;;12.80;2.25;;;12.40;99.90;;;;;;5073232;28;20491;-56
2022/05/27 21:59:38;;;;;;;11.93;2.58;;;12.40;99.90;;;;;;5073412;28;20051;-55
2022/05/27 22:02:05;;;;;;;11.68;2.60;;;12.40;99.90;;;;;;5071930;28;20044;-56
2022/05/27 22:04:31;;;;;;;25.25;4.13;;;12.40;99.90;;;;;;5072604;28;20416;-55
2022/05/27 22:06:56;;;;;;;11.50;2.30;;;12.40;99.90;;;;;;5072612;28;20109;-56
2022/05/27 22:14:52;;;;;;;12.95;2.63;;;12.30;99.90;;;;;;5071770;28;20068;-55
2022/05/27 22:17:17;;;;;;;15.05;2.97;;;12.30;99.90;;;;;;5072236;28;20510;-56
2022/05/27 22:19:43;;;;;;;14.27;2.50;;;12.30;99.90;;;;;;5071748;28;20079;-56
2022/05/27 22:22:09;;;;;;;9.98;2.30;;;12.40;99.90;;;;;;5069613;28;20475;-55
2022/05/27 22:24:36;;;;;;;16.10;2.20;;;12.30;99.90;;;;;;5071739;28;20115;-55
2022/05/27 22:27:03;;;;;;;12.63;2.13;;;12.30;99.90;;;;;;5072465;28;20515;-56
2022/05/27 22:29:29;;;;;;;12.25;2.22;;;12.30;99.90;;;;;;5072287;28;20040;-56
2022/05/27 22:31:54;;;;;;;11.05;2.42;;;12.30;99.90;;;;;;5072399;28;20067;-56
2022/05/27 22:34:20;;;;;;;21.52;2.30;;;12.20;99.90;;;;;;5072756;28;20040;-55
2022/05/27 22:36:45;;;;;;;10.85;2.42;;;12.30;99.90;;;;;;5072541;28;20048;-55
2022/05/27 22:39:11;;;;;;;10.68;2.33;;;12.20;99.90;;;;;;5072416;28;20040;-56
2022/05/27 22:41:37;;;;;;;14.60;3.65;;;12.20;99.90;;;;;;5079643;28;20040;-55
2022/05/27 22:44:02;;;;;;;10.75;1.90;;;12.20;99.90;;;;;;5077785;28;20123;-56
2022/05/27 22:46:28;;;;;;;13.85;2.42;;;12.30;99.90;;;;;;5070760;28;20041;-56
2022/05/27 22:48:54;;;;;;;9.93;1.77;;;12.30;99.90;;;;;;5072501;28;20486;-56
2022/05/27 22:51:20;;;;;;;6.35;1.38;;;12.40;99.90;;;;;;5067900;28;20045;-55
2022/05/27 22:53:45;;;;;;;9.38;1.80;;;12.40;99.90;;;;;;5071869;28;20044;-56
2022/05/27 22:56:13;;;;;;;11.90;3.00;;;12.40;99.90;;;;;;5072721;28;20037;-55
2022/05/27 22:58:38;;;;;;;9.30;1.40;;;12.40;99.90;;;;;;5072024;28;20779;-55
2022/05/27 23:01:12;;;;;;;12.68;2.13;;;12.40;99.90;;;;;;5072228;28;20045;-55
2022/05/27 23:03:38;;;;;;;8.68;1.88;;;12.40;99.90;;;;;;5072311;28;20044;-55
2022/05/27 23:06:04;;;;;;;11.88;1.73;;;12.40;99.90;;;;;;5072260;28;20483;-56
2022/05/27 23:08:29;;;;;;;11.13;2.25;;;12.40;99.90;;;;;;5072381;28;20052;-56
2022/05/27 23:11:04;;;;;;;11.88;3.47;;;12.50;99.90;;;;;;5072124;28;20044;-55
2022/05/27 23:18:59;;;;;;;8.27;2.05;;;12.40;99.90;;;;;;5072245;28;20049;-55
2022/05/27 23:21:25;;;;;;;7.70;1.40;;;12.40;99.90;;;;;;5054219;28;20131;-55
2022/05/27 23:23:51;;;;;;;9.50;1.40;;;12.30;99.90;;;;;;5072453;28;20530;-55
2022/05/27 23:26:16;;;;;;;6.03;1.40;;;12.40;99.90;;;;;;5072187;28;20057;-56
2022/05/27 23:28:42;;;;;;;9.38;1.75;;;12.40;99.90;;;;;;5072279;28;20054;-55
2022/05/27 23:31:13;;;;;;;8.68;1.70;;;12.40;99.90;;;;;;5072024;28;20083;-55
2022/05/27 23:33:40;;;;;;;7.35;1.58;;;12.40;99.90;;;;;;5072570;28;20063;-55
2022/05/27 23:36:06;;;;;;;6.60;1.55;;;12.30;99.90;;;;;;5072161;28;20900;-55
2022/05/27 23:38:33;;;;;;;5.22;1.33;;;12.30;99.90;;;;;;5072122;28;20056;-55
2022/05/27 23:41:10;;;;;;;9.50;1.75;;;12.30;99.90;;;;;;5053577;28;20060;-55
2022/05/27 23:43:36;;;;;;;9.35;1.50;;;12.30;99.90;;;;;;5072002;28;20115;-55
2022/05/27 23:46:08;;;;;;;11.35;1.83;;;12.30;99.90;;;;;;5071820;28;20040;-56
2022/05/27 23:48:34;;;;;;;11.90;1.65;;;12.20;99.90;;;;;;5053467;28;20053;-56
2022/05/27 23:51:03;;;;;;;10.95;1.67;;;12.20;99.90;;;;;;5071907;28;20044;-55
2022/05/27 23:53:29;;;;;;;12.77;1.70;;;12.20;99.90;;;;;;5060606;28;20043;-55
2022/05/27 23:55:56;;;;;;;6.15;1.58;;;12.10;99.90;;;;;;5092211;28;20047;-56
2022/05/27 23:58:25;;;;;;;10.30;1.67;;;12.20;99.90;;;;;;5092046;28;20098;-55
